Terminal Aerodrome Forecast
Issued by NWS Topeka, KS

Home | Current Version | Previous Version | Graphics & Text | Print | Product List | Glossary On
Versions: 1 2 3 4 5 6 7 8 9 10 11 12 13 14 15 16 17 18 19
000
FTUS43 KTOP 292300
TAFTOP
TAF
KTOP 292335Z 3000/3024 27007KT P6SM VCTS BKN080CB
     FM300100 27005KT P6SM FEW120
     FM300600 VRB03KT P6SM SCT250
     FM302100 17005KT P6SM SKC=

USA.gov is the U.S. government's official web portal to all federal, state and local government web resources and services.